Dickinson Theodore Roosevelt Regional Airport Dickinson US
ICAO: KDIK
IATA: DIK
Category: Medium
Scheduled Services: No

Elevation: 2592 ft
TransAlt. 18000 ft.

Airport Communications:
MINNEAPOLIS CNTR:124.25
GRAND FORKS RDO:122.2
CTAF/UNICOM:123

KDIK Zoom In..

If you have problems with the map follow the link
https://www.worldairports.se/pages/airport.php?
ICAO=KDIK

Runways:

(A) RW 07 length 4699 ft width 75 ft
---- / hdg 70

(B) RW 14 length 6399 ft width 100 ft
---- / hdg 140

(C) RW 25 length 4699 ft width 75 ft
---- / hdg 250

(D) RW 32 length 6399 ft width 100 ft
ILS 108.30 / hdg 320

Location; KDIK
Day. 22 / Time. 15.56 Zulu
* Altimeter: 30.06
* Temperature: -17° c. -1.4°f.
* Wind from: 170° Speed 08 kn.
Dewpoint: -20° c.
Visibility: 8 Statute Miles.
Clouds: Clear (automated report).
Conditions: Light Snow.

KDIK 221556Z AUTO 17008KT 8SM -SN CLR M17/M20 A3006 RMK AO2 SNB20 SLP250 P0000 I1000 T11721200


Wind From 170°
Speed 08 kn.

 
 
jpsmedia.com for Web Design worldairports.se 2019   terms of use